Time;durP1;ratioP1;P1;durP2;ratioP2;P2;SDS_P1;SDS_P2;PMS_P1;PMS_P2;Temp;Humidity;BMP_temperature;BMP_pressure;BME280_temperature;BME280_humidity;BME280_pressure;Samples;Min_cycle;Max_cycle;Signal;HPM_P1;HPM_P2
2020/12/31 00:01:37;;;;;;;12.67;11.43;;;;;;;;;;5079330;28;20603;-88
2020/12/31 00:04:07;;;;;;;12.53;11.27;;;;;;;;;;5078071;28;20174;-88
2020/12/31 00:06:38;;;;;;;15.93;13.83;;;;;;;;;;5077594;28;20288;-88
2020/12/31 00:09:04;;;;;;;15.03;12.80;;;;;;;;;;5077699;28;20553;-87
2020/12/31 00:11:39;;;;;;;13.93;12.60;;;;;;;;;;5079058;28;20689;-89
2020/12/31 00:14:08;;;;;;;13.17;10.80;;;;;;;;;;5095974;28;20166;-87
2020/12/31 00:16:39;;;;;;;12.17;10.87;;;;;;;;;;5095816;28;20175;-88
2020/12/31 00:19:08;;;;;;;14.50;13.00;;;;;;;;;;5096102;28;20182;-88
2020/12/31 00:21:40;;;;;;;12.50;11.30;;;;;;;;;;5095498;28;20193;-88
2020/12/31 00:24:16;;;;;;;12.20;11.17;;;;;;;;;;5079518;28;20175;-88
2020/12/31 00:26:47;;;;;;;12.47;11.23;;;;;;;;;;5097078;28;20209;-88
2020/12/31 00:29:17;;;;;;;8.37;7.67;;;;;;;;;;5078071;28;20182;-88
2020/12/31 00:31:51;;;;;;;12.50;11.30;;;;;;;;;;5078156;28;20195;-88
2020/12/31 00:34:21;;;;;;;12.20;10.40;;;;;;;;;;5097649;28;20653;-89
2020/12/31 00:36:54;;;;;;;12.17;10.50;;;;;;;;;;5101347;28;20186;-89
2020/12/31 00:39:29;;;;;;;10.87;9.03;;;;;;;;;;5081762;28;20185;-88
2020/12/31 00:42:01;;;;;;;13.07;10.20;;;;;;;;;;5082295;28;20198;-89
2020/12/31 00:44:31;;;;;;;9.47;8.67;;;;;;;;;;5081443;28;20175;-89
2020/12/31 00:46:58;;;;;;;14.00;10.30;;;;;;;;;;5082415;28;20202;-88
2020/12/31 00:49:30;;;;;;;10.90;8.67;;;;;;;;;;5096637;28;20177;-87
2020/12/31 00:52:06;;;;;;;10.80;9.67;;;;;;;;;;5076131;28;20188;-87
2020/12/31 00:54:32;;;;;;;9.27;8.47;;;;;;;;;;5076876;28;20181;-86
2020/12/31 00:57:01;;;;;;;9.30;8.40;;;;;;;;;;5076822;28;20202;-87
2020/12/31 00:59:31;;;;;;;11.07;10.07;;;;;;;;;;5094846;28;20244;-87
2020/12/31 01:02:00;;;;;;;9.77;8.67;;;;;;;;;;5076644;28;20209;-87
2020/12/31 01:04:29;;;;;;;10.63;9.53;;;;;;;;;;5076719;28;20181;-87
2020/12/31 01:06:56;;;;;;;8.63;6.60;;;;;;;;;;5076869;28;20210;-87
2020/12/31 01:09:27;;;;;;;12.90;10.73;;;;;;;;;;5094872;28;20179;-87
2020/12/31 01:12:00;;;;;;;9.00;8.20;;;;;;;;;;5094892;28;20194;-86
2020/12/31 01:14:31;;;;;;;10.90;9.77;;;;;;;;;;5076318;28;20193;-86
2020/12/31 01:17:05;;;;;;;10.47;9.37;;;;;;;;;;5094210;28;20265;-86
2020/12/31 01:19:37;;;;;;;9.73;8.43;;;;;;;;;;5076531;28;20631;-86
2020/12/31 01:22:09;;;;;;;11.57;10.47;;;;;;;;;;5094215;28;20671;-87
2020/12/31 01:24:40;;;;;;;16.90;11.80;;;;;;;;;;5075919;28;20638;-86
2020/12/31 01:27:11;;;;;;;12.03;10.83;;;;;;;;;;5094043;28;20199;-86
2020/12/31 01:29:45;;;;;;;11.70;10.47;;;;;;;;;;5075761;28;20178;-86
2020/12/31 01:32:18;;;;;;;13.80;11.30;;;;;;;;;;5076366;28;20224;-86
2020/12/31 01:34:51;;;;;;;13.07;11.77;;;;;;;;;;5078311;28;20182;-88
2020/12/31 01:37:24;;;;;;;12.70;10.97;;;;;;;;;;5077404;28;20212;-87
2020/12/31 01:39:59;;;;;;;14.53;13.03;;;;;;;;;;5076939;28;20183;-87
2020/12/31 01:42:27;;;;;;;15.83;13.07;;;;;;;;;;5077178;28;20533;-87
2020/12/31 01:44:53;;;;;;;15.60;13.73;;;;;;;;;;5076704;28;20205;-87
2020/12/31 01:47:19;;;;;;;11.97;10.90;;;;;;;;;;5076375;28;20269;-86
2020/12/31 01:49:52;;;;;;;13.60;12.13;;;;;;;;;;5093658;28;20182;-85
2020/12/31 01:52:22;;;;;;;14.80;11.67;;;;;;;;;;5075275;28;20709;-85
2020/12/31 01:54:54;;;;;;;15.97;14.30;;;;;;;;;;5093586;28;20259;-86
2020/12/31 01:57:21;;;;;;;12.17;10.87;;;;;;;;;;5075435;28;20182;-85
2020/12/31 01:59:53;;;;;;;14.53;12.63;;;;;;;;;;5093656;28;20557;-86
2020/12/31 02:02:25;;;;;;;17.27;13.77;;;;;;;;;;5075268;28;20271;-86
2020/12/31 02:05:00;;;;;;;17.10;14.23;;;;;;;;;;5116988;22;20241;-86
2020/12/31 02:07:31;;;;;;;13.47;10.87;;;;;;;;;;5114321;28;20185;-86
2020/12/31 02:10:04;;;;;;;18.87;12.77;;;;;;;;;;5114176;28;20167;-86
2020/12/31 02:12:39;;;;;;;13.00;11.20;;;;;;;;;;5114413;28;20211;-86
2020/12/31 02:15:10;;;;;;;18.50;15.53;;;;;;;;;;5112678;28;20250;-86
2020/12/31 02:17:43;;;;;;;23.60;16.10;;;;;;;;;;5114135;28;20177;-86
2020/12/31 02:20:17;;;;;;;26.73;19.13;;;;;;;;;;5112713;28;20197;-86
2020/12/31 02:22:51;;;;;;;23.40;15.00;;;;;;;;;;5112722;28;20176;-86
2020/12/31 02:25:25;;;;;;;22.60;16.27;;;;;;;;;;5112717;28;20199;-86
2020/12/31 02:27:58;;;;;;;20.90;16.87;;;;;;;;;;5113802;28;20660;-86
2020/12/31 02:30:30;;;;;;;16.73;13.67;;;;;;;;;;5114177;28;20179;-86
2020/12/31 02:32:56;;;;;;;27.93;20.13;;;;;;;;;;5114086;28;20246;-86
2020/12/31 02:35:26;;;;;;;29.80;22.03;;;;;;;;;;5112535;28;20190;-86
2020/12/31 02:37:53;;;;;;;23.83;19.10;;;;;;;;;;5113742;28;20167;-86
2020/12/31 02:40:25;;;;;;;18.33;13.70;;;;;;;;;;5112395;28;20174;-86
2020/12/31 02:42:58;;;;;;;19.60;14.37;;;;;;;;;;5112458;28;20187;-86
2020/12/31 02:45:26;;;;;;;31.57;23.00;;;;;;;;;;5113535;28;20185;-86
2020/12/31 02:47:56;;;;;;;29.57;21.23;;;;;;;;;;5112285;28;20173;-86
2020/12/31 02:50:29;;;;;;;21.37;15.93;;;;;;;;;;5112244;28;20216;-86
2020/12/31 02:52:58;;;;;;;28.97;22.17;;;;;;;;;;5112432;28;20167;-86
2020/12/31 02:55:29;;;;;;;31.77;23.60;;;;;;;;;;5113778;28;20184;-86
2020/12/31 02:58:01;;;;;;;29.67;19.40;;;;;;;;;;5113367;28;20169;-86
2020/12/31 03:00:34;;;;;;;19.77;15.53;;;;;;;;;;5112324;28;20193;-86
2020/12/31 03:03:09;;;;;;;33.23;23.10;;;;;;;;;;5112697;28;20161;-86
2020/12/31 03:05:40;;;;;;;23.77;17.87;;;;;;;;;;5113227;28;20216;-86
2020/12/31 03:08:15;;;;;;;17.23;14.73;;;;;;;;;;5112036;28;20169;-86
2020/12/31 03:10:45;;;;;;;27.00;20.77;;;;;;;;;;5112209;28;20250;-86
2020/12/31 03:13:12;;;;;;;24.47;20.10;;;;;;;;;;5111921;28;20177;-86
2020/12/31 03:15:45;;;;;;;29.97;21.27;;;;;;;;;;5115021;28;20221;-86
2020/12/31 03:18:16;;;;;;;20.60;15.17;;;;;;;;;;5116001;28;20174;-86
2020/12/31 03:20:51;;;;;;;22.07;15.47;;;;;;;;;;5117402;28;20165;-86
2020/12/31 03:23:21;;;;;;;31.33;23.10;;;;;;;;;;5115907;28;20179;-86
2020/12/31 03:25:57;;;;;;;33.80;24.30;;;;;;;;;;5115749;28;20210;-86
2020/12/31 03:28:26;;;;;;;31.10;22.13;;;;;;;;;;5117330;28;20155;-86
2020/12/31 03:30:57;;;;;;;26.07;18.63;;;;;;;;;;5115816;28;20252;-86
2020/12/31 03:33:24;;;;;;;27.47;19.80;;;;;;;;;;5115695;28;20170;-86
2020/12/31 03:35:55;;;;;;;32.20;23.40;;;;;;;;;;5115647;28;20198;-86
2020/12/31 03:38:28;;;;;;;30.23;21.57;;;;;;;;;;5117093;28;20176;-86
2020/12/31 03:41:00;;;;;;;25.83;18.93;;;;;;;;;;5115530;28;20177;-86
2020/12/31 03:43:35;;;;;;;29.37;21.43;;;;;;;;;;5116691;28;20187;-86
2020/12/31 03:46:07;;;;;;;35.13;25.67;;;;;;;;;;5117001;28;20188;-86
2020/12/31 03:48:41;;;;;;;41.67;27.07;;;;;;;;;;5115219;28;20639;-86
2020/12/31 03:51:14;;;;;;;38.90;27.57;;;;;;;;;;5116570;28;20177;-86
2020/12/31 03:53:47;;;;;;;30.33;21.60;;;;;;;;;;5115397;28;20542;-86
2020/12/31 03:56:21;;;;;;;21.70;14.87;;;;;;;;;;5116778;28;20239;-86
2020/12/31 03:58:48;;;;;;;34.33;22.70;;;;;;;;;;5116725;27;20234;-86
2020/12/31 04:01:21;;;;;;;31.20;22.13;;;;;;;;;;5115089;28;20178;-86
2020/12/31 04:03:51;;;;;;;26.33;21.27;;;;;;;;;;5116510;28;20193;-86
2020/12/31 04:06:21;;;;;;;26.83;19.60;;;;;;;;;;5114990;28;20283;-86
2020/12/31 04:08:58;;;;;;;20.50;14.37;;;;;;;;;;5114959;28;20172;-86
2020/12/31 04:11:30;;;;;;;33.73;24.83;;;;;;;;;;5114932;28;20608;-86
2020/12/31 04:14:00;;;;;;;21.83;17.17;;;;;;;;;;5114764;28;20196;-86
2020/12/31 04:16:33;;;;;;;31.10;23.10;;;;;;;;;;5114627;28;20181;-86
2020/12/31 04:19:05;;;;;;;32.27;21.77;;;;;;;;;;5115952;28;20177;-86
2020/12/31 04:21:38;;;;;;;32.53;23.10;;;;;;;;;;5114649;28;20184;-86
2020/12/31 04:24:09;;;;;;;25.20;18.97;;;;;;;;;;5116107;28;20220;-86
2020/12/31 04:26:41;;;;;;;27.23;18.23;;;;;;;;;;5113634;28;20194;-86
2020/12/31 04:29:15;;;;;;;21.37;16.40;;;;;;;;;;5115864;28;20169;-86
2020/12/31 04:31:51;;;;;;;19.23;15.63;;;;;;;;;;5116178;28;20165;-86
2020/12/31 04:34:25;;;;;;;20.80;14.67;;;;;;;;;;5114490;28;20273;-86
2020/12/31 04:36:58;;;;;;;29.83;20.20;;;;;;;;;;5116044;28;20264;-86
2020/12/31 04:39:30;;;;;;;36.30;23.63;;;;;;;;;;5115890;28;20182;-86
2020/12/31 04:42:00;;;;;;;32.93;22.60;;;;;;;;;;5114391;28;20177;-86
2020/12/31 04:44:36;;;;;;;19.83;16.20;;;;;;;;;;5114158;28;20278;-86
2020/12/31 04:47:06;;;;;;;31.20;21.00;;;;;;;;;;5115910;28;20535;-86
2020/12/31 04:49:51;;;;;;;26.23;19.00;;;;;;;;;;5115533;28;20180;-86
2020/12/31 04:52:22;;;;;;;27.23;18.47;;;;;;;;;;5114131;28;20262;-86
2020/12/31 04:54:54;;;;;;;31.67;22.70;;;;;;;;;;5114037;28;20227;-86
2020/12/31 04:57:30;;;;;;;33.40;24.53;;;;;;;;;;5114063;28;20179;-86
2020/12/31 04:59:58;;;;;;;25.23;18.17;;;;;;;;;;5113849;28;20642;-86
2020/12/31 05:02:31;;;;;;;28.70;19.03;;;;;;;;;;5115186;28;20178;-86
2020/12/31 05:05:05;;;;;;;32.43;23.63;;;;;;;;;;5115057;28;20242;-86
2020/12/31 05:07:38;;;;;;;21.10;17.03;;;;;;;;;;5113836;28;20197;-86
2020/12/31 05:10:11;;;;;;;32.37;22.17;;;;;;;;;;5115364;27;20176;-86
2020/12/31 05:12:42;;;;;;;19.43;13.97;;;;;;;;;;5113700;28;20541;-86
2020/12/31 05:15:09;;;;;;;42.80;26.30;;;;;;;;;;5113654;28;20283;-86
2020/12/31 05:17:35;;;;;;;20.70;17.23;;;;;;;;;;5113627;28;20181;-86
2020/12/31 05:20:13;;;;;;;28.17;21.10;;;;;;;;;;5114883;28;20542;-86
2020/12/31 05:22:44;;;;;;;30.30;19.17;;;;;;;;;;5113534;28;20167;-86
2020/12/31 05:25:16;;;;;;;32.37;21.20;;;;;;;;;;5114759;28;20193;-86
2020/12/31 05:27:47;;;;;;;31.47;21.47;;;;;;;;;;5114895;28;20210;-86
2020/12/31 05:30:18;;;;;;;35.30;24.77;;;;;;;;;;5113426;28;20186;-86
2020/12/31 05:32:50;;;;;;;35.10;25.33;;;;;;;;;;5113325;28;20176;-86
2020/12/31 05:35:25;;;;;;;31.87;22.77;;;;;;;;;;5113230;28;20285;-86
2020/12/31 05:37:57;;;;;;;27.97;19.37;;;;;;;;;;5113300;28;20178;-86
2020/12/31 05:40:31;;;;;;;38.40;24.90;;;;;;;;;;5113354;28;20177;-86
2020/12/31 05:43:03;;;;;;;25.23;18.20;;;;;;;;;;5114604;28;20177;-86
2020/12/31 05:45:41;;;;;;;36.90;24.27;;;;;;;;;;5114206;28;20203;-86
2020/12/31 05:48:15;;;;;;;28.63;18.60;;;;;;;;;;5113222;28;20177;-86
2020/12/31 05:50:51;;;;;;;37.40;22.73;;;;;;;;;;5114726;28;20548;-86
2020/12/31 05:53:24;;;;;;;37.03;26.03;;;;;;;;;;5114521;28;20164;-86
2020/12/31 05:55:58;;;;;;;27.57;20.07;;;;;;;;;;5112888;28;20241;-86
2020/12/31 05:58:31;;;;;;;38.57;25.00;;;;;;;;;;5114349;28;20180;-86
2020/12/31 06:01:03;;;;;;;37.90;26.63;;;;;;;;;;5112917;28;20167;-86
2020/12/31 06:03:39;;;;;;;41.83;27.77;;;;;;;;;;5112433;28;20184;-86
2020/12/31 06:06:15;;;;;;;35.93;26.27;;;;;;;;;;5114322;28;20197;-86
2020/12/31 06:09:00;;;;;;;35.17;25.63;;;;;;;;;;5114029;28;20641;-86
2020/12/31 06:11:35;;;;;;;29.40;20.53;;;;;;;;;;5112735;28;20176;-86
2020/12/31 06:14:07;;;;;;;32.63;22.37;;;;;;;;;;5112656;28;20196;-86
2020/12/31 06:16:39;;;;;;;27.00;18.80;;;;;;;;;;5112714;28;20177;-86
2020/12/31 06:19:25;;;;;;;32.37;24.10;;;;;;;;;;5112938;28;20183;-86
2020/12/31 06:22:00;;;;;;;28.00;20.20;;;;;;;;;;5114046;28;20167;-86
2020/12/31 06:24:36;;;;;;;37.47;26.67;;;;;;;;;;5113817;28;20200;-86
2020/12/31 06:27:09;;;;;;;39.57;24.83;;;;;;;;;;5112433;28;20216;-86
2020/12/31 06:29:44;;;;;;;36.73;25.87;;;;;;;;;;5112476;28;20174;-86
2020/12/31 06:32:27;;;;;;;38.37;25.73;;;;;;;;;;5112372;28;20171;-86
2020/12/31 06:35:05;;;;;;;27.70;20.87;;;;;;;;;;5112987;28;20219;-86
2020/12/31 06:37:39;;;;;;;36.90;23.53;;;;;;;;;;5113952;28;20628;-86
2020/12/31 06:40:27;;;;;;;22.77;18.23;;;;;;;;;;5112509;28;20264;-86
2020/12/31 06:43:09;;;;;;;28.80;19.67;;;;;;;;;;5113755;28;20256;-86
2020/12/31 06:45:41;;;;;;;29.30;22.30;;;;;;;;;;5112291;28;20743;-86
2020/12/31 06:48:28;;;;;;;26.00;19.77;;;;;;;;;;5114003;28;20179;-86
2020/12/31 06:51:05;;;;;;;31.20;21.03;;;;;;;;;;5114750;28;20267;-86
2020/12/31 06:53:35;;;;;;;36.13;25.17;;;;;;;;;;5116309;28;20180;-86
2020/12/31 06:56:02;;;;;;;27.23;21.07;;;;;;;;;;5116357;28;20174;-86
2020/12/31 06:58:39;;;;;;;40.03;26.87;;;;;;;;;;5116294;28;20189;-86
2020/12/31 07:01:25;;;;;;;27.37;19.97;;;;;;;;;;5116393;28;20175;-86
2020/12/31 07:03:58;;;;;;;17.23;14.60;;;;;;;;;;5117251;28;20220;-86
2020/12/31 07:06:29;;;;;;;19.23;15.67;;;;;;;;;;5117400;28;20202;-86
2020/12/31 07:09:02;;;;;;;33.73;23.63;;;;;;;;;;5116028;28;20175;-86
2020/12/31 07:11:35;;;;;;;24.47;17.93;;;;;;;;;;5117445;28;20180;-86
2020/12/31 07:14:25;;;;;;;22.97;17.73;;;;;;;;;;5116008;28;20195;-86
2020/12/31 07:17:10;;;;;;;27.13;19.10;;;;;;;;;;5116655;28;20189;-86
2020/12/31 07:19:45;;;;;;;25.80;18.93;;;;;;;;;;5116057;28;20194;-86
2020/12/31 07:22:21;;;;;;;33.43;23.70;;;;;;;;;;5117118;28;20180;-86
2020/12/31 07:25:07;;;;;;;27.93;20.67;;;;;;;;;;5115878;28;20207;-86
2020/12/31 07:27:40;;;;;;;22.47;16.67;;;;;;;;;;5115626;28;20226;-86
2020/12/31 07:30:15;;;;;;;35.80;24.80;;;;;;;;;;5115780;28;20554;-86
2020/12/31 07:32:58;;;;;;;33.30;23.27;;;;;;;;;;5117320;28;20203;-86
2020/12/31 07:35:30;;;;;;;36.53;24.93;;;;;;;;;;5116762;28;20202;-86
2020/12/31 07:38:02;;;;;;;37.53;27.57;;;;;;;;;;5116836;28;20180;-86
2020/12/31 07:40:35;;;;;;;30.97;23.20;;;;;;;;;;5117117;28;20579;-86
2020/12/31 07:43:09;;;;;;;34.33;24.57;;;;;;;;;;5116799;28;20173;-86
2020/12/31 07:45:46;;;;;;;34.93;26.37;;;;;;;;;;5115281;28;20204;-86
2020/12/31 07:48:14;;;;;;;30.20;22.70;;;;;;;;;;5117172;28;20538;-86
2020/12/31 07:50:48;;;;;;;38.83;24.00;;;;;;;;;;5116873;28;20531;-86
2020/12/31 07:53:21;;;;;;;40.03;26.53;;;;;;;;;;5115310;28;20180;-86
2020/12/31 07:55:52;;;;;;;40.57;27.33;;;;;;;;;;5116495;28;20575;-86
2020/12/31 07:58:21;;;;;;;25.13;18.63;;;;;;;;;;5116685;28;20741;-86
2020/12/31 08:01:00;;;;;;;29.97;20.80;;;;;;;;;;5114883;28;20191;-86
2020/12/31 08:03:36;;;;;;;43.87;27.47;;;;;;;;;;5114607;28;20587;-86
2020/12/31 08:06:07;;;;;;;25.43;17.43;;;;;;;;;;5122819;22;20228;-83
2020/12/31 08:08:34;;;;;;;39.33;26.80;;;;;;;;;;5096562;28;20161;-82
2020/12/31 08:11:10;;;;;;;36.47;25.77;;;;;;;;;;5095233;28;20224;-82
2020/12/31 08:13:43;;;;;;;34.33;21.77;;;;;;;;;;5095137;28;20178;-82
2020/12/31 08:16:14;;;;;;;37.83;25.03;;;;;;;;;;5094763;28;20197;-82
2020/12/31 08:18:51;;;;;;;32.77;24.63;;;;;;;;;;5096055;28;20175;-82
2020/12/31 08:21:25;;;;;;;33.87;23.57;;;;;;;;;;5096509;28;20570;-82
2020/12/31 08:24:00;;;;;;;26.00;19.80;;;;;;;;;;5094903;28;20182;-82
2020/12/31 08:26:36;;;;;;;32.67;24.67;;;;;;;;;;5095680;28;20210;-82
2020/12/31 08:29:08;;;;;;;30.17;21.33;;;;;;;;;;5094930;28;20159;-82
2020/12/31 08:31:43;;;;;;;32.13;24.80;;;;;;;;;;5094588;28;20655;-82
2020/12/31 08:34:15;;;;;;;32.20;24.90;;;;;;;;;;5095029;28;20171;-83
2020/12/31 08:36:53;;;;;;;17.90;14.50;;;;;;;;;;5094678;28;20209;-82
2020/12/31 08:39:25;;;;;;;27.80;22.07;;;;;;;;;;5096444;28;20162;-82
2020/12/31 08:42:01;;;;;;;30.77;21.83;;;;;;;;;;5096008;28;20185;-82
2020/12/31 08:44:35;;;;;;;27.10;22.57;;;;;;;;;;5095944;28;20174;-82
2020/12/31 08:47:01;;;;;;;28.80;21.23;;;;;;;;;;5095304;28;20665;-82
2020/12/31 08:49:27;;;;;;;26.00;18.43;;;;;;;;;;5096454;28;20172;-82
2020/12/31 08:51:58;;;;;;;30.87;19.53;;;;;;;;;;5096738;28;20217;-82
2020/12/31 08:54:27;;;;;;;31.50;24.13;;;;;;;;;;5095631;28;20172;-82
2020/12/31 08:56:55;;;;;;;25.67;20.07;;;;;;;;;;5094171;28;20719;-83
2020/12/31 08:59:34;;;;;;;29.27;22.77;;;;;;;;;;5095509;28;20185;-82
2020/12/31 09:02:15;;;;;;;27.50;20.50;;;;;;;;;;5095432;28;20166;-83
2020/12/31 09:04:48;;;;;;;22.10;17.70;;;;;;;;;;5093831;28;20195;-82
2020/12/31 09:07:21;;;;;;;25.47;19.87;;;;;;;;;;5095388;28;20198;-82
2020/12/31 09:09:48;;;;;;;22.70;16.43;;;;;;;;;;5094755;28;20171;-82
2020/12/31 09:12:21;;;;;;;24.17;20.17;;;;;;;;;;5093667;28;20719;-82
2020/12/31 09:15:04;;;;;;;26.13;20.57;;;;;;;;;;5095118;28;20631;-81
2020/12/31 09:17:37;;;;;;;20.80;16.37;;;;;;;;;;5093694;28;20179;-82
2020/12/31 09:20:06;;;;;;;17.00;15.23;;;;;;;;;;5093665;28;20767;-82
2020/12/31 09:22:39;;;;;;;15.43;13.80;;;;;;;;;;5093820;28;20178;-82
2020/12/31 09:25:15;;;;;;;28.70;20.37;;;;;;;;;;5093460;28;20705;-82
2020/12/31 09:27:49;;;;;;;22.77;18.03;;;;;;;;;;5095051;28;20570;-82
2020/12/31 09:30:17;;;;;;;17.73;14.97;;;;;;;;;;5095108;28;20658;-82
2020/12/31 09:32:46;;;;;;;19.57;16.33;;;;;;;;;;5093643;28;20179;-82
2020/12/31 09:35:17;;;;;;;15.60;13.63;;;;;;;;;;5093958;28;20192;-81
2020/12/31 09:37:57;;;;;;;13.07;10.93;;;;;;;;;;5095125;28;20171;-82
2020/12/31 09:40:27;;;;;;;20.63;16.57;;;;;;;;;;5094806;28;20676;-82
2020/12/31 09:42:56;;;;;;;13.27;11.83;;;;;;;;;;5094776;28;20176;-82
2020/12/31 09:45:25;;;;;;;19.10;16.50;;;;;;;;;;5093880;28;20212;-82
2020/12/31 09:47:52;;;;;;;22.53;16.83;;;;;;;;;;5095377;28;20175;-81
2020/12/31 09:50:21;;;;;;;17.77;14.80;;;;;;;;;;5094027;28;20602;-82
2020/12/31 09:52:54;;;;;;;19.67;15.07;;;;;;;;;;5093267;28;20170;-82
2020/12/31 09:55:24;;;;;;;14.60;12.53;;;;;;;;;;5095046;28;20705;-82
2020/12/31 09:57:55;;;;;;;15.07;12.03;;;;;;;;;;5094538;28;20176;-82
2020/12/31 10:00:26;;;;;;;16.97;13.67;;;;;;;;;;5093735;28;20173;-82
2020/12/31 10:02:57;;;;;;;18.60;14.53;;;;;;;;;;5094673;28;20643;-82
2020/12/31 10:05:26;;;;;;;13.37;10.60;;;;;;;;;;5093074;28;20257;-82
2020/12/31 10:07:55;;;;;;;13.93;12.37;;;;;;;;;;5093685;28;20181;-82
2020/12/31 10:10:25;;;;;;;15.37;12.87;;;;;;;;;;5092991;28;20208;-81
2020/12/31 10:12:58;;;;;;;18.23;15.60;;;;;;;;;;5093958;28;20178;-82
2020/12/31 10:15:31;;;;;;;18.93;16.00;;;;;;;;;;5093998;28;20709;-82
2020/12/31 10:18:03;;;;;;;14.67;13.13;;;;;;;;;;5092993;28;20282;-82
2020/12/31 10:20:34;;;;;;;15.97;14.23;;;;;;;;;;5092651;28;20177;-81
2020/12/31 10:23:10;;;;;;;13.77;12.30;;;;;;;;;;5094362;28;20233;-82
2020/12/31 10:25:39;;;;;;;16.27;14.57;;;;;;;;;;5091889;28;20203;-82
2020/12/31 10:28:11;;;;;;;15.93;13.73;;;;;;;;;;5093899;28;20176;-82
2020/12/31 10:30:41;;;;;;;17.80;15.97;;;;;;;;;;5092640;28;20256;-82
2020/12/31 10:33:14;;;;;;;19.43;16.70;;;;;;;;;;5093868;28;20230;-82
2020/12/31 10:35:48;;;;;;;18.90;16.40;;;;;;;;;;5093946;28;20197;-81
2020/12/31 10:38:17;;;;;;;16.77;15.07;;;;;;;;;;5092717;28;20165;-82
2020/12/31 10:40:43;;;;;;;17.67;11.90;;;;;;;;;;5092316;28;20194;-82
2020/12/31 10:43:13;;;;;;;18.33;16.27;;;;;;;;;;5093831;28;20172;-82
2020/12/31 10:45:40;;;;;;;13.57;10.87;;;;;;;;;;5093538;28;20186;-82
2020/12/31 10:48:13;;;;;;;16.80;15.03;;;;;;;;;;5092462;28;20200;-82
2020/12/31 10:50:41;;;;;;;17.47;15.33;;;;;;;;;;5094313;28;20172;-81
2020/12/31 10:53:15;;;;;;;14.30;11.63;;;;;;;;;;5093935;28;20168;-82
2020/12/31 10:55:46;;;;;;;13.50;12.10;;;;;;;;;;5092715;28;20197;-81
2020/12/31 10:58:21;;;;;;;14.67;11.50;;;;;;;;;;5092556;28;20169;-81
2020/12/31 11:00:54;;;;;;;16.00;13.87;;;;;;;;;;5094389;28;20282;-82
2020/12/31 11:03:28;;;;;;;14.93;12.60;;;;;;;;;;5093982;28;20521;-82
2020/12/31 11:05:59;;;;;;;13.87;12.20;;;;;;;;;;5092146;28;20221;-82
2020/12/31 11:08:31;;;;;;;10.40;9.37;;;;;;;;;;5093547;28;20175;-82
2020/12/31 11:11:06;;;;;;;17.00;15.20;;;;;;;;;;5092263;28;20632;-82
2020/12/31 11:13:37;;;;;;;17.00;14.03;;;;;;;;;;5093658;28;20166;-82
2020/12/31 11:16:14;;;;;;;17.77;15.07;;;;;;;;;;5093685;28;20197;-82
2020/12/31 11:18:43;;;;;;;17.27;15.10;;;;;;;;;;5093541;28;20695;-82
2020/12/31 11:21:17;;;;;;;13.90;11.97;;;;;;;;;;5092641;28;20176;-82
2020/12/31 11:23:47;;;;;;;14.80;13.30;;;;;;;;;;5093393;28;20176;-82
2020/12/31 11:26:16;;;;;;;15.60;13.63;;;;;;;;;;5092193;28;20213;-82
2020/12/31 11:28:49;;;;;;;17.57;15.77;;;;;;;;;;5093301;28;20639;-82
2020/12/31 11:31:25;;;;;;;18.57;15.50;;;;;;;;;;5092136;28;20548;-82
2020/12/31 11:34:00;;;;;;;13.43;12.13;;;;;;;;;;5093292;28;20246;-82
2020/12/31 11:36:31;;;;;;;18.10;14.47;;;;;;;;;;5094856;28;20794;-82
2020/12/31 11:39:05;;;;;;;22.37;15.40;;;;;;;;;;5095989;28;20169;-82
2020/12/31 11:41:39;;;;;;;12.90;11.53;;;;;;;;;;5097149;28;20539;-81
2020/12/31 11:44:11;;;;;;;14.17;11.23;;;;;;;;;;5095577;28;20182;-82
2020/12/31 11:46:37;;;;;;;14.53;12.73;;;;;;;;;;5095544;28;20691;-82
2020/12/31 11:49:09;;;;;;;15.13;12.57;;;;;;;;;;5095708;28;20175;-82
2020/12/31 11:51:41;;;;;;;19.53;15.60;;;;;;;;;;5096782;28;20174;-82
2020/12/31 11:54:12;;;;;;;18.10;14.43;;;;;;;;;;5096784;28;20181;-82
2020/12/31 11:56:44;;;;;;;17.47;14.13;;;;;;;;;;5096605;28;20230;-82
2020/12/31 11:59:14;;;;;;;16.73;13.87;;;;;;;;;;5095330;28;20186;-82
2020/12/31 12:01:50;;;;;;;15.07;12.87;;;;;;;;;;5095430;28;20175;-82
2020/12/31 12:04:26;;;;;;;16.93;13.53;;;;;;;;;;5096454;28;20633;-82
2020/12/31 12:06:58;;;;;;;18.57;15.43;;;;;;;;;;5096907;28;20206;-82
2020/12/31 12:09:32;;;;;;;17.87;14.37;;;;;;;;;;5095236;28;20200;-82
2020/12/31 12:12:04;;;;;;;15.97;13.53;;;;;;;;;;5095595;28;20597;-82
2020/12/31 12:14:39;;;;;;;15.37;12.83;;;;;;;;;;5096271;28;20170;-81
2020/12/31 12:17:11;;;;;;;14.87;13.17;;;;;;;;;;5096640;28;20181;-82
2020/12/31 12:19:45;;;;;;;13.23;11.93;;;;;;;;;;5096268;28;20653;-82
2020/12/31 12:22:18;;;;;;;13.90;11.67;;;;;;;;;;5094990;28;20652;-82
2020/12/31 12:24:51;;;;;;;13.70;11.30;;;;;;;;;;5096544;28;20220;-82
2020/12/31 12:27:25;;;;;;;10.73;9.63;;;;;;;;;;5096720;28;20193;-82
2020/12/31 12:29:54;;;;;;;14.57;12.20;;;;;;;;;;5094875;28;20181;-82
2020/12/31 12:32:29;;;;;;;11.83;10.63;;;;;;;;;;5094737;28;20551;-82
2020/12/31 12:34:59;;;;;;;14.07;11.30;;;;;;;;;;5095971;28;20681;-82
2020/12/31 12:37:31;;;;;;;10.93;9.70;;;;;;;;;;5094830;28;20276;-82
2020/12/31 12:40:03;;;;;;;10.87;9.77;;;;;;;;;;5096063;28;20172;-82
2020/12/31 12:42:38;;;;;;;10.30;9.30;;;;;;;;;;5094314;28;20182;-81
2020/12/31 12:45:12;;;;;;;14.83;12.93;;;;;;;;;;5095948;28;20195;-81
2020/12/31 12:47:41;;;;;;;12.10;10.77;;;;;;;;;;5093756;28;20204;-81
2020/12/31 12:50:14;;;;;;;12.57;10.00;;;;;;;;;;5095860;28;20173;-82
2020/12/31 12:52:51;;;;;;;10.37;9.37;;;;;;;;;;5095854;28;20177;-82
2020/12/31 12:55:25;;;;;;;14.57;11.00;;;;;;;;;;5095568;28;20220;-82
2020/12/31 12:57:56;;;;;;;15.57;12.67;;;;;;;;;;5095786;28;20184;-82
2020/12/31 13:00:28;;;;;;;15.03;11.50;;;;;;;;;;5095300;28;20177;-82
2020/12/31 13:03:00;;;;;;;16.17;11.03;;;;;;;;;;5094129;28;20178;-82
2020/12/31 13:05:35;;;;;;;11.30;9.57;;;;;;;;;;5094465;28;20216;-82
2020/12/31 13:08:08;;;;;;;12.83;11.40;;;;;;;;;;5095556;28;20518;-82
2020/12/31 13:10:41;;;;;;;12.00;10.70;;;;;;;;;;5095512;28;20248;-82
2020/12/31 13:13:07;;;;;;;10.03;9.00;;;;;;;;;;5095448;28;20187;-82
2020/12/31 13:15:33;;;;;;;12.70;11.40;;;;;;;;;;5094341;28;20219;-83
2020/12/31 13:18:02;;;;;;;10.97;9.13;;;;;;;;;;5095596;28;20263;-82
2020/12/31 13:20:28;;;;;;;12.00;10.40;;;;;;;;;;5093958;28;20181;-82
2020/12/31 13:23:00;;;;;;;11.70;9.50;;;;;;;;;;5095010;28;20176;-82
2020/12/31 13:25:30;;;;;;;14.20;11.50;;;;;;;;;;5093857;28;20196;-82
2020/12/31 13:28:03;;;;;;;15.27;12.17;;;;;;;;;;5093694;28;20210;-82
2020/12/31 13:30:35;;;;;;;13.33;11.87;;;;;;;;;;5093734;28;20644;-83
2020/12/31 13:33:02;;;;;;;12.13;10.67;;;;;;;;;;5094912;28;20660;-83
2020/12/31 13:35:34;;;;;;;8.70;7.87;;;;;;;;;;5094952;28;20250;-83
2020/12/31 13:38:06;;;;;;;15.87;12.17;;;;;;;;;;5094848;28;20167;-83
2020/12/31 13:40:40;;;;;;;13.03;11.60;;;;;;;;;;5095196;28;20158;-82
2020/12/31 13:43:07;;;;;;;14.07;12.63;;;;;;;;;;5094787;28;20230;-82
2020/12/31 13:45:39;;;;;;;13.00;10.23;;;;;;;;;;5093474;28;20204;-83
2020/12/31 13:48:15;;;;;;;14.00;12.30;;;;;;;;;;5094608;28;20181;-82
2020/12/31 13:50:41;;;;;;;15.03;12.37;;;;;;;;;;5094917;28;20164;-82
2020/12/31 13:53:08;;;;;;;15.17;12.20;;;;;;;;;;5093471;28;20213;-82
2020/12/31 13:55:35;;;;;;;16.07;12.50;;;;;;;;;;5093425;28;20218;-82
2020/12/31 13:58:01;;;;;;;14.97;13.17;;;;;;;;;;5094899;28;20180;-81
2020/12/31 14:00:30;;;;;;;13.40;12.00;;;;;;;;;;5093391;28;20176;-83
2020/12/31 14:03:01;;;;;;;14.53;12.97;;;;;;;;;;5094752;28;20174;-83
2020/12/31 14:05:30;;;;;;;16.33;13.50;;;;;;;;;;5094981;28;20225;-82
2020/12/31 14:07:57;;;;;;;15.20;12.33;;;;;;;;;;5094121;28;20209;-82
2020/12/31 14:10:24;;;;;;;12.57;10.97;;;;;;;;;;5210770;22;20237;-84
2020/12/31 14:12:59;;;;;;;12.43;11.07;;;;;;;;;;5094003;28;20175;-84
2020/12/31 14:15:34;;;;;;;13.07;11.60;;;;;;;;;;5093927;28;20634;-84
2020/12/31 14:18:11;;;;;;;12.97;11.07;;;;;;;;;;5092382;28;20174;-84
2020/12/31 14:20:45;;;;;;;14.33;12.53;;;;;;;;;;5092352;28;20204;-84
2020/12/31 14:23:11;;;;;;;15.60;13.17;;;;;;;;;;5093019;28;20604;-84
2020/12/31 14:25:44;;;;;;;15.37;12.23;;;;;;;;;;5093928;28;20577;-84
2020/12/31 14:28:18;;;;;;;14.37;12.53;;;;;;;;;;5092494;28;20173;-85
2020/12/31 14:30:50;;;;;;;14.10;11.53;;;;;;;;;;5092366;28;20201;-85
2020/12/31 14:33:21;;;;;;;14.27;11.13;;;;;;;;;;5093522;28;20673;-85
2020/12/31 14:35:47;;;;;;;12.77;11.47;;;;;;;;;;5093862;28;20174;-85
2020/12/31 14:38:16;;;;;;;14.60;12.07;;;;;;;;;;5093124;28;20637;-85
2020/12/31 14:40:47;;;;;;;12.93;10.80;;;;;;;;;;5092531;28;20209;-85
2020/12/31 14:43:14;;;;;;;17.57;11.77;;;;;;;;;;5092169;28;20177;-85
2020/12/31 14:45:47;;;;;;;13.13;11.20;;;;;;;;;;5093710;28;20177;-85
2020/12/31 14:48:16;;;;;;;13.87;11.63;;;;;;;;;;5093854;28;20157;-85